OAL892 BGBW-BIRK
Flight info
| Callsign | OAL892 |
|---|---|
| Flight time | 1h 46m |
| Altitude | 45000 |
| Route | UMSUK DCT 6340N DCT 6430N DCT INGAN |
| Aircraft | C750/M-SBDE3FGHRWXY/S |
Departure
| Time | 2026-04-19 06:31 |
|---|---|
| Airport | Narsarsuaq Airport (BGBW) |
Arrival
| Time | 2026-04-19 08:18 |
|---|---|
| Airport | Reykjavík Domestic Airport (BIRK) |
| Time | Latitude | Longitude | Altitude | Speed | Heading |
|---|---|---|---|---|---|
| 2026-04-19 06:21 | 61.16181 | -45.41868 | 80 ft | 0 kts | 41° |
| 2026-04-19 06:25 | 61.16186 | -45.41858 | 80 ft | 3 kts | 41° |
| 2026-04-19 06:26 | 61.16207 | -45.41839 | 80 ft | 3 kts | 360° |
| 2026-04-19 06:26 | 61.16227 | -45.41868 | 80 ft | 5 kts | 314° |
| 2026-04-19 06:26 | 61.16266 | -45.41966 | 81 ft | 12 kts | 308° |
| 2026-04-19 06:26 | 61.16309 | -45.42149 | 80 ft | 16 kts | 243° |
| 2026-04-19 06:27 | 61.16207 | -45.42333 | 68 ft | 23 kts | 220° |
| 2026-04-19 06:27 | 61.16069 | -45.42580 | 69 ft | 28 kts | 219° |
| 2026-04-19 06:27 | 61.15917 | -45.42843 | 57 ft | 29 kts | 221° |
| 2026-04-19 06:27 | 61.15765 | -45.43112 | 56 ft | 26 kts | 220° |
| 2026-04-19 06:28 | 61.15630 | -45.43351 | 46 ft | 25 kts | 220° |
| 2026-04-19 06:28 | 61.15525 | -45.43564 | 44 ft | 20 kts | 232° |
| 2026-04-19 06:28 | 61.15474 | -45.43598 | 43 ft | 8 kts | 52° |
| 2026-04-19 06:28 | 61.15515 | -45.43552 | 44 ft | 0 kts | 36° |
| 2026-04-19 06:30 | 61.15516 | -45.43551 | 44 ft | 0 kts | 36° |
| 2026-04-19 06:30 | 61.15638 | -45.43346 | 48 ft | 66 kts | 40° |
| 2026-04-19 06:31 | 61.16212 | -45.42348 | 100 ft | 134 kts | 41° |
| 2026-04-19 06:31 | 61.16967 | -45.41064 | 442 ft | 143 kts | 40° |
| 2026-04-19 06:31 | 61.17689 | -45.39667 | 1041 ft | 144 kts | 47° |
| 2026-04-19 06:31 | 61.18344 | -45.38067 | 1512 ft | 153 kts | 52° |
| 2026-04-19 06:32 | 61.18959 | -45.36202 | 2144 ft | 159 kts | 57° |
| 2026-04-19 06:32 | 61.19445 | -45.34149 | 2920 ft | 159 kts | 66° |
| 2026-04-19 06:32 | 61.19836 | -45.31976 | 3621 ft | 163 kts | 67° |
| 2026-04-19 06:32 | 61.20106 | -45.29671 | 4305 ft | 172 kts | 82° |
| 2026-04-19 06:33 | 61.20171 | -45.27102 | 4868 ft | 184 kts | 82° |
| 2026-04-19 06:33 | 61.20326 | -45.24428 | 5559 ft | 189 kts | 77° |
| 2026-04-19 06:33 | 61.20516 | -45.21681 | 6273 ft | 198 kts | 77° |
| 2026-04-19 06:33 | 61.20714 | -45.18774 | 6985 ft | 208 kts | 77° |
| 2026-04-19 06:34 | 61.21066 | -45.15834 | 7752 ft | 216 kts | 68° |
| 2026-04-19 06:34 | 61.21696 | -45.12786 | 8080 ft | 245 kts | 62° |
| 2026-04-19 06:34 | 61.22436 | -45.09466 | 8839 ft | 255 kts | 64° |
| 2026-04-19 06:34 | 61.23107 | -45.06134 | 9923 ft | 253 kts | 66° |
| 2026-04-19 06:35 | 61.23806 | -45.02618 | 10289 ft | 276 kts | 65° |
| 2026-04-19 06:35 | 61.24588 | -44.98763 | 10418 ft | 303 kts | 65° |
| 2026-04-19 06:35 | 61.25438 | -44.94566 | 10716 ft | 321 kts | 65° |
| 2026-04-19 06:35 | 61.26295 | -44.90278 | 11510 ft | 323 kts | 65° |
| 2026-04-19 06:36 | 61.27295 | -44.86073 | 12065 ft | 329 kts | 54° |
| 2026-04-19 06:36 | 61.28756 | -44.82388 | 12743 ft | 333 kts | 50° |
| 2026-04-19 06:36 | 61.30247 | -44.78633 | 13342 ft | 339 kts | 50° |
| 2026-04-19 06:36 | 61.31733 | -44.74773 | 13877 ft | 346 kts | 50° |
| 2026-04-19 06:37 | 61.33258 | -44.70863 | 14538 ft | 347 kts | 49° |
| 2026-04-19 06:37 | 61.34804 | -44.66949 | 15116 ft | 353 kts | 49° |
| 2026-04-19 06:37 | 61.36363 | -44.62971 | 15824 ft | 353 kts | 49° |
| 2026-04-19 06:37 | 61.37921 | -44.58963 | 16406 ft | 360 kts | 49° |
| 2026-04-19 06:38 | 61.39501 | -44.54898 | 17184 ft | 361 kts | 48° |
| 2026-04-19 06:38 | 61.41102 | -44.50788 | 17712 ft | 368 kts | 48° |
| 2026-04-19 06:38 | 61.42713 | -44.46639 | 18418 ft | 368 kts | 49° |
| 2026-04-19 06:38 | 61.44332 | -44.42458 | 19024 ft | 371 kts | 50° |
| 2026-04-19 06:39 | 61.45948 | -44.38270 | 19762 ft | 371 kts | 51° |
| 2026-04-19 06:39 | 61.47577 | -44.34055 | 20426 ft | 371 kts | 53° |
| 2026-04-19 06:39 | 61.49192 | -44.29867 | 21145 ft | 372 kts | 54° |
| 2026-04-19 06:39 | 61.50811 | -44.25654 | 21866 ft | 370 kts | 54° |
| 2026-04-19 06:40 | 61.52439 | -44.21407 | 22318 ft | 377 kts | 54° |
| 2026-04-19 06:40 | 61.54055 | -44.17189 | 23066 ft | 375 kts | 54° |
| 2026-04-19 06:40 | 61.55728 | -44.12814 | 23412 ft | 382 kts | 55° |
| 2026-04-19 06:40 | 61.57383 | -44.08481 | 23978 ft | 383 kts | 53° |
| 2026-04-19 06:41 | 61.59045 | -44.04119 | 24313 ft | 389 kts | 54° |
| 2026-04-19 06:41 | 61.60738 | -43.99664 | 24735 ft | 395 kts | 53° |
| 2026-04-19 06:41 | 61.62460 | -43.95128 | 25283 ft | 396 kts | 53° |
| 2026-04-19 06:41 | 61.64192 | -43.90557 | 25550 ft | 405 kts | 52° |
| 2026-04-19 06:42 | 61.65947 | -43.85915 | 26116 ft | 406 kts | 52° |
| 2026-04-19 06:42 | 61.67726 | -43.81190 | 26428 ft | 414 kts | 52° |
| 2026-04-19 06:42 | 61.69522 | -43.76415 | 26791 ft | 421 kts | 52° |
| 2026-04-19 06:42 | 61.71350 | -43.71556 | 27219 ft | 423 kts | 52° |
| 2026-04-19 06:43 | 61.73188 | -43.66656 | 27659 ft | 428 kts | 52° |
| 2026-04-19 06:43 | 61.75038 | -43.61702 | 28104 ft | 432 kts | 52° |
| 2026-04-19 06:43 | 61.76906 | -43.56692 | 28562 ft | 436 kts | 51° |
| 2026-04-19 06:43 | 61.78788 | -43.51641 | 29021 ft | 440 kts | 51° |
| 2026-04-19 06:44 | 61.80688 | -43.46534 | 29493 ft | 443 kts | 51° |
| 2026-04-19 06:44 | 61.82601 | -43.41371 | 29876 ft | 447 kts | 51° |
| 2026-04-19 06:44 | 61.84521 | -43.36178 | 30263 ft | 450 kts | 50° |
| 2026-04-19 06:44 | 61.86454 | -43.30938 | 30644 ft | 453 kts | 51° |
| 2026-04-19 06:45 | 61.88399 | -43.25658 | 31046 ft | 454 kts | 52° |
| 2026-04-19 06:45 | 61.90317 | -43.20437 | 31449 ft | 454 kts | 52° |
| 2026-04-19 06:45 | 61.92256 | -43.15139 | 31856 ft | 454 kts | 52° |
| 2026-04-19 06:45 | 61.94192 | -43.09850 | 32272 ft | 454 kts | 52° |
| 2026-04-19 06:46 | 61.96128 | -43.04544 | 32690 ft | 454 kts | 51° |
| 2026-04-19 06:46 | 61.98060 | -42.99234 | 33109 ft | 454 kts | 51° |
| 2026-04-19 06:46 | 61.99990 | -42.93917 | 33524 ft | 454 kts | 50° |
| 2026-04-19 06:46 | 62.01918 | -42.88594 | 33877 ft | 454 kts | 51° |
| 2026-04-19 06:47 | 62.03847 | -42.83255 | 34294 ft | 455 kts | 51° |
| 2026-04-19 06:47 | 62.05784 | -42.77885 | 34703 ft | 456 kts | 51° |
| 2026-04-19 06:47 | 62.07712 | -42.72528 | 35053 ft | 458 kts | 52° |
| 2026-04-19 06:47 | 62.09663 | -42.67088 | 35310 ft | 463 kts | 52° |
| 2026-04-19 06:48 | 62.11620 | -42.61618 | 35748 ft | 463 kts | 52° |
| 2026-04-19 06:48 | 62.13580 | -42.56134 | 36196 ft | 464 kts | 52° |
| 2026-04-19 06:48 | 62.15538 | -42.50643 | 36624 ft | 465 kts | 52° |
| 2026-04-19 06:48 | 62.17494 | -42.45136 | 37069 ft | 466 kts | 52° |
| 2026-04-19 06:49 | 62.19452 | -42.39609 | 37526 ft | 466 kts | 52° |
| 2026-04-19 06:49 | 62.21413 | -42.34068 | 37981 ft | 467 kts | 52° |
| 2026-04-19 06:49 | 62.23374 | -42.28511 | 38367 ft | 468 kts | 52° |
| 2026-04-19 06:49 | 62.25335 | -42.22936 | 38750 ft | 468 kts | 52° |
| 2026-04-19 06:50 | 62.27294 | -42.17357 | 39109 ft | 469 kts | 53° |
| 2026-04-19 06:50 | 62.29234 | -42.11821 | 39481 ft | 469 kts | 53° |
| 2026-04-19 06:50 | 62.31192 | -42.06216 | 39871 ft | 469 kts | 53° |
| 2026-04-19 06:50 | 62.33154 | -42.00584 | 40248 ft | 470 kts | 53° |
| 2026-04-19 06:51 | 62.35113 | -41.94951 | 40637 ft | 470 kts | 53° |
| 2026-04-19 06:51 | 62.37076 | -41.89294 | 41032 ft | 471 kts | 54° |
| 2026-04-19 06:51 | 62.39033 | -41.83637 | 41402 ft | 471 kts | 54° |
| 2026-04-19 06:51 | 62.40990 | -41.77966 | 41791 ft | 471 kts | 54° |
| 2026-04-19 06:52 | 62.42945 | -41.72289 | 42176 ft | 471 kts | 54° |
| 2026-04-19 06:52 | 62.44902 | -41.66590 | 42524 ft | 472 kts | 54° |
| 2026-04-19 06:52 | 62.46857 | -41.60883 | 42852 ft | 473 kts | 55° |
| 2026-04-19 06:52 | 62.48813 | -41.55157 | 43213 ft | 473 kts | 55° |
| 2026-04-19 06:53 | 62.50770 | -41.49416 | 43519 ft | 475 kts | 55° |
| 2026-04-19 06:53 | 62.52064 | -41.45610 | 43776 ft | 475 kts | 55° |
| 2026-04-19 06:53 | 62.54024 | -41.39841 | 44117 ft | 475 kts | 55° |
| 2026-04-19 06:53 | 62.55976 | -41.34081 | 44421 ft | 475 kts | 55° |
| 2026-04-19 06:54 | 62.59942 | -41.22306 | 44403 ft | 490 kts | 55° |
| 2026-04-19 06:54 | 62.64014 | -41.10177 | 44415 ft | 503 kts | 55° |
| 2026-04-19 06:55 | 62.68179 | -40.97693 | 44417 ft | 516 kts | 55° |
| 2026-04-19 06:55 | 62.72421 | -40.84914 | 44424 ft | 525 kts | 56° |
| 2026-04-19 06:56 | 62.76697 | -40.71956 | 44424 ft | 525 kts | 55° |
| 2026-04-19 06:56 | 62.80937 | -40.59034 | 44421 ft | 521 kts | 56° |
| 2026-04-19 06:57 | 62.85133 | -40.46173 | 44417 ft | 518 kts | 56° |
| 2026-04-19 06:57 | 62.89311 | -40.33293 | 44412 ft | 520 kts | 57° |
| 2026-04-19 06:58 | 62.93507 | -40.20278 | 44435 ft | 524 kts | 57° |
| 2026-04-19 06:58 | 62.97686 | -40.07259 | 44433 ft | 525 kts | 57° |
| 2026-04-19 06:59 | 63.01096 | -39.93182 | 44421 ft | 519 kts | 73° |
| 2026-04-19 06:59 | 63.03054 | -39.77955 | 44433 ft | 514 kts | 78° |
| 2026-04-19 07:00 | 63.05110 | -39.62855 | 44445 ft | 515 kts | 74° |
| 2026-04-19 07:00 | 63.07199 | -39.47762 | 44418 ft | 514 kts | 77° |
| 2026-04-19 07:01 | 63.09190 | -39.32585 | 44425 ft | 516 kts | 76° |
| 2026-04-19 07:01 | 63.11260 | -39.17423 | 44421 ft | 516 kts | 77° |
| 2026-04-19 07:02 | 63.13231 | -39.02170 | 44445 ft | 515 kts | 76° |
| 2026-04-19 07:02 | 63.15249 | -38.86959 | 44453 ft | 515 kts | 77° |
| 2026-04-19 07:03 | 63.17194 | -38.71779 | 44449 ft | 516 kts | 77° |
| 2026-04-19 07:03 | 63.19169 | -38.56482 | 44449 ft | 515 kts | 78° |
| 2026-04-19 07:04 | 63.21104 | -38.41184 | 44431 ft | 516 kts | 77° |
| 2026-04-19 07:04 | 63.23032 | -38.25876 | 44432 ft | 515 kts | 78° |
| 2026-04-19 07:05 | 63.24937 | -38.10577 | 44461 ft | 515 kts | 78° |
| 2026-04-19 07:05 | 63.26829 | -37.95206 | 44463 ft | 516 kts | 78° |
| 2026-04-19 07:06 | 63.28708 | -37.79842 | 44450 ft | 515 kts | 78° |
| 2026-04-19 07:06 | 63.30556 | -37.64512 | 44453 ft | 513 kts | 79° |
| 2026-04-19 07:07 | 63.32393 | -37.49176 | 44467 ft | 512 kts | 78° |
| 2026-04-19 07:07 | 63.34206 | -37.33846 | 44471 ft | 513 kts | 78° |
| 2026-04-19 07:08 | 63.36007 | -37.18460 | 44490 ft | 514 kts | 78° |
| 2026-04-19 07:08 | 63.37795 | -37.03041 | 44470 ft | 514 kts | 79° |
| 2026-04-19 07:09 | 63.39559 | -36.87644 | 44496 ft | 517 kts | 79° |
| 2026-04-19 07:09 | 63.41321 | -36.72133 | 44494 ft | 515 kts | 80° |
| 2026-04-19 07:10 | 63.43059 | -36.56626 | 44499 ft | 514 kts | 80° |
| 2026-04-19 07:10 | 63.44783 | -36.41108 | 44509 ft | 514 kts | 80° |
| 2026-04-19 07:11 | 63.46490 | -36.25552 | 44513 ft | 514 kts | 79° |
| 2026-04-19 07:11 | 63.48177 | -36.10027 | 44537 ft | 513 kts | 79° |
| 2026-04-19 07:12 | 63.49842 | -35.94496 | 44540 ft | 514 kts | 81° |
| 2026-04-19 07:12 | 63.51500 | -35.78892 | 44549 ft | 516 kts | 80° |
| 2026-04-19 07:13 | 63.53132 | -35.63338 | 44560 ft | 517 kts | 81° |
| 2026-04-19 07:13 | 63.54764 | -35.47604 | 44559 ft | 519 kts | 81° |
| 2026-04-19 07:14 | 63.56382 | -35.31882 | 44546 ft | 516 kts | 81° |
| 2026-04-19 07:14 | 63.57965 | -35.16211 | 44561 ft | 513 kts | 81° |
| 2026-04-19 07:15 | 63.59532 | -35.00555 | 44592 ft | 515 kts | 81° |
| 2026-04-19 07:16 | 63.61871 | -34.76853 | 44583 ft | 519 kts | 82° |
| 2026-04-19 07:16 | 63.63411 | -34.60997 | 44614 ft | 518 kts | 82° |
| 2026-04-19 07:17 | 63.64929 | -34.45175 | 44591 ft | 516 kts | 82° |
| 2026-04-19 07:17 | 63.66424 | -34.29387 | 44612 ft | 516 kts | 82° |
| 2026-04-19 07:18 | 63.67902 | -34.13552 | 44623 ft | 518 kts | 82° |
| 2026-04-19 07:18 | 63.69373 | -33.97665 | 44631 ft | 518 kts | 82° |
| 2026-04-19 07:19 | 63.70820 | -33.81768 | 44632 ft | 517 kts | 82° |
| 2026-04-19 07:19 | 63.72252 | -33.65842 | 44645 ft | 518 kts | 83° |
| 2026-04-19 07:20 | 63.73668 | -33.49880 | 44640 ft | 518 kts | 83° |
| 2026-04-19 07:20 | 63.75066 | -33.33921 | 44657 ft | 517 kts | 83° |
| 2026-04-19 07:21 | 63.76433 | -33.18088 | 44658 ft | 517 kts | 83° |
| 2026-04-19 07:21 | 63.77794 | -33.02104 | 44671 ft | 517 kts | 83° |
| 2026-04-19 07:22 | 63.79135 | -32.86162 | 44643 ft | 516 kts | 83° |
| 2026-04-19 07:22 | 63.80452 | -32.70224 | 44680 ft | 515 kts | 83° |
| 2026-04-19 07:23 | 63.81758 | -32.54220 | 44668 ft | 518 kts | 83° |
| 2026-04-19 07:23 | 63.83052 | -32.38162 | 44707 ft | 518 kts | 83° |
| 2026-04-19 07:24 | 63.84324 | -32.22087 | 44686 ft | 518 kts | 84° |
| 2026-04-19 07:24 | 63.85580 | -32.06047 | 44714 ft | 516 kts | 84° |
| 2026-04-19 07:25 | 63.86808 | -31.90045 | 44699 ft | 515 kts | 84° |
| 2026-04-19 07:25 | 63.88016 | -31.74089 | 44712 ft | 518 kts | 84° |
| 2026-04-19 07:26 | 63.89219 | -31.57969 | 44714 ft | 518 kts | 85° |
| 2026-04-19 07:26 | 63.90402 | -31.41841 | 44735 ft | 517 kts | 85° |
| 2026-04-19 07:27 | 63.91566 | -31.25745 | 44756 ft | 515 kts | 85° |
| 2026-04-19 07:27 | 63.92706 | -31.09676 | 44754 ft | 516 kts | 84° |
| 2026-04-19 07:28 | 63.93835 | -30.93544 | 44748 ft | 517 kts | 84° |
| 2026-04-19 07:28 | 63.94943 | -30.77417 | 44776 ft | 517 kts | 85° |
| 2026-04-19 07:29 | 63.96035 | -30.61261 | 44781 ft | 516 kts | 85° |
| 2026-04-19 07:29 | 63.97107 | -30.45115 | 44800 ft | 515 kts | 85° |
| 2026-04-19 07:30 | 63.98158 | -30.28994 | 44783 ft | 514 kts | 85° |
| 2026-04-19 07:30 | 63.99191 | -30.12867 | 44798 ft | 515 kts | 85° |
| 2026-04-19 07:31 | 64.00373 | -29.96738 | 44790 ft | 520 kts | 78° |
| 2026-04-19 07:31 | 64.02364 | -29.80851 | 44830 ft | 520 kts | 77° |
| 2026-04-19 07:32 | 64.04261 | -29.65017 | 44824 ft | 516 kts | 78° |
| 2026-04-19 07:32 | 64.06168 | -29.49116 | 44847 ft | 522 kts | 78° |
| 2026-04-19 07:33 | 64.08071 | -29.33121 | 44849 ft | 523 kts | 78° |
| 2026-04-19 07:33 | 64.09949 | -29.17047 | 44853 ft | 523 kts | 78° |
| 2026-04-19 07:34 | 64.11822 | -29.00972 | 44857 ft | 523 kts | 78° |
| 2026-04-19 07:34 | 64.13661 | -28.84884 | 44875 ft | 522 kts | 78° |
| 2026-04-19 07:35 | 64.15495 | -28.68780 | 44881 ft | 521 kts | 78° |
| 2026-04-19 07:35 | 64.17302 | -28.52646 | 44891 ft | 523 kts | 79° |
| 2026-04-19 07:36 | 64.19096 | -28.36511 | 44777 ft | 519 kts | 79° |
| 2026-04-19 07:36 | 64.19981 | -28.28481 | 44021 ft | 518 kts | 79° |
| 2026-04-19 07:36 | 64.20852 | -28.20520 | 43341 ft | 510 kts | 79° |
| 2026-04-19 07:36 | 64.21695 | -28.12781 | 42685 ft | 500 kts | 79° |
| 2026-04-19 07:37 | 64.22527 | -28.05107 | 42034 ft | 489 kts | 80° |
| 2026-04-19 07:37 | 64.23337 | -27.97579 | 41400 ft | 479 kts | 80° |
| 2026-04-19 07:37 | 64.24125 | -27.90223 | 40795 ft | 470 kts | 81° |
| 2026-04-19 07:37 | 64.24896 | -27.82974 | 40184 ft | 464 kts | 81° |
| 2026-04-19 07:38 | 64.25656 | -27.75801 | 39565 ft | 461 kts | 82° |
| 2026-04-19 07:38 | 64.26411 | -27.68641 | 38994 ft | 459 kts | 82° |
| 2026-04-19 07:38 | 64.27158 | -27.61510 | 38334 ft | 460 kts | 83° |
| 2026-04-19 07:38 | 64.27904 | -27.54353 | 37719 ft | 460 kts | 83° |
| 2026-04-19 07:39 | 64.28651 | -27.47153 | 37115 ft | 464 kts | 83° |
| 2026-04-19 07:39 | 64.29402 | -27.39857 | 36501 ft | 471 kts | 82° |
| 2026-04-19 07:39 | 64.29906 | -27.34956 | 36105 ft | 476 kts | 82° |
| 2026-04-19 07:39 | 64.30671 | -27.27497 | 35478 ft | 481 kts | 82° |
| 2026-04-19 07:40 | 64.31438 | -27.19987 | 34818 ft | 483 kts | 81° |
| 2026-04-19 07:40 | 64.32200 | -27.12447 | 34203 ft | 484 kts | 81° |
| 2026-04-19 07:40 | 64.32961 | -27.04878 | 33534 ft | 485 kts | 81° |
| 2026-04-19 07:40 | 64.33966 | -26.94858 | 32688 ft | 483 kts | 81° |
| 2026-04-19 07:41 | 64.34476 | -26.89740 | 32257 ft | 482 kts | 81° |
| 2026-04-19 07:41 | 64.35210 | -26.82304 | 31625 ft | 480 kts | 82° |
| 2026-04-19 07:41 | 64.35948 | -26.74787 | 30997 ft | 479 kts | 82° |
| 2026-04-19 07:41 | 64.36682 | -26.67286 | 30381 ft | 479 kts | 82° |
| 2026-04-19 07:42 | 64.37410 | -26.59818 | 29706 ft | 475 kts | 82° |
| 2026-04-19 07:42 | 64.38125 | -26.52443 | 29086 ft | 467 kts | 82° |
| 2026-04-19 07:42 | 64.38823 | -26.45169 | 28473 ft | 461 kts | 82° |
| 2026-04-19 07:42 | 64.39509 | -26.37967 | 27881 ft | 457 kts | 82° |
| 2026-04-19 07:43 | 64.40193 | -26.30766 | 27283 ft | 456 kts | 82° |
| 2026-04-19 07:43 | 64.40869 | -26.23627 | 26680 ft | 452 kts | 82° |
| 2026-04-19 07:43 | 64.41535 | -26.16562 | 26081 ft | 447 kts | 83° |
| 2026-04-19 07:43 | 64.42190 | -26.09558 | 25516 ft | 442 kts | 83° |
| 2026-04-19 07:44 | 64.42834 | -26.02619 | 24933 ft | 437 kts | 83° |
| 2026-04-19 07:44 | 64.43467 | -25.95772 | 24361 ft | 433 kts | 83° |
| 2026-04-19 07:44 | 64.44091 | -25.88985 | 23793 ft | 429 kts | 83° |
| 2026-04-19 07:44 | 64.44703 | -25.82287 | 23187 ft | 424 kts | 83° |
| 2026-04-19 07:45 | 64.45308 | -25.75646 | 22648 ft | 418 kts | 84° |
| 2026-04-19 07:45 | 64.45904 | -25.69055 | 22095 ft | 415 kts | 84° |
| 2026-04-19 07:45 | 64.46488 | -25.62546 | 21551 ft | 412 kts | 84° |
| 2026-04-19 07:45 | 64.47049 | -25.56282 | 21027 ft | 409 kts | 84° |
| 2026-04-19 07:46 | 64.47623 | -25.49850 | 20489 ft | 405 kts | 84° |
| 2026-04-19 07:46 | 64.48185 | -25.43497 | 19972 ft | 401 kts | 84° |
| 2026-04-19 07:46 | 64.48742 | -25.37174 | 19448 ft | 397 kts | 84° |
| 2026-04-19 07:46 | 64.49290 | -25.30925 | 18924 ft | 394 kts | 85° |
| 2026-04-19 07:47 | 64.49831 | -25.24719 | 18407 ft | 390 kts | 85° |
| 2026-04-19 07:47 | 64.50364 | -25.18570 | 17854 ft | 386 kts | 85° |
| 2026-04-19 07:47 | 64.50888 | -25.12505 | 17347 ft | 381 kts | 85° |
| 2026-04-19 07:47 | 64.51402 | -25.06495 | 16846 ft | 378 kts | 85° |
| 2026-04-19 07:48 | 64.51911 | -25.00539 | 16351 ft | 373 kts | 85° |
| 2026-04-19 07:48 | 64.52408 | -24.94759 | 15864 ft | 357 kts | 85° |
| 2026-04-19 07:48 | 64.52878 | -24.89236 | 15402 ft | 339 kts | 85° |
| 2026-04-19 07:48 | 64.53318 | -24.84005 | 14951 ft | 320 kts | 86° |
| 2026-04-19 07:49 | 64.53730 | -24.79053 | 14564 ft | 305 kts | 86° |
| 2026-04-19 07:49 | 64.54124 | -24.74283 | 14175 ft | 297 kts | 86° |
| 2026-04-19 07:49 | 64.54511 | -24.69598 | 13786 ft | 294 kts | 86° |
| 2026-04-19 07:49 | 64.54895 | -24.64959 | 13375 ft | 292 kts | 86° |
| 2026-04-19 07:50 | 64.55275 | -24.60341 | 12993 ft | 291 kts | 86° |
| 2026-04-19 07:50 | 64.55513 | -24.55706 | 12593 ft | 285 kts | 95° |
| 2026-04-19 07:50 | 64.55438 | -24.51138 | 12238 ft | 281 kts | 100° |
| 2026-04-19 07:50 | 64.55298 | -24.46635 | 11678 ft | 287 kts | 101° |
| 2026-04-19 07:51 | 64.55146 | -24.42145 | 11641 ft | 270 kts | 101° |
| 2026-04-19 07:51 | 64.55005 | -24.37858 | 11638 ft | 266 kts | 101° |
| 2026-04-19 07:51 | 64.54858 | -24.33491 | 11644 ft | 275 kts | 101° |
| 2026-04-19 07:51 | 64.54701 | -24.29031 | 11657 ft | 279 kts | 101° |
| 2026-04-19 07:52 | 64.54542 | -24.24520 | 11658 ft | 280 kts | 101° |
| 2026-04-19 07:52 | 64.54381 | -24.20009 | 11666 ft | 281 kts | 101° |
| 2026-04-19 07:52 | 64.54219 | -24.15474 | 11669 ft | 281 kts | 101° |
| 2026-04-19 07:52 | 64.54057 | -24.10949 | 11686 ft | 281 kts | 101° |
| 2026-04-19 07:53 | 64.53894 | -24.06422 | 11682 ft | 281 kts | 101° |
| 2026-04-19 07:53 | 64.53730 | -24.01902 | 11681 ft | 281 kts | 101° |
| 2026-04-19 07:53 | 64.53531 | -23.97395 | 11676 ft | 280 kts | 103° |
| 2026-04-19 07:53 | 64.53300 | -23.92906 | 11647 ft | 280 kts | 103° |
| 2026-04-19 07:54 | 64.53057 | -23.88447 | 11646 ft | 282 kts | 103° |
| 2026-04-19 07:54 | 64.52801 | -23.83936 | 11633 ft | 282 kts | 103° |
| 2026-04-19 07:54 | 64.52542 | -23.79394 | 11467 ft | 283 kts | 103° |
| 2026-04-19 07:54 | 64.52283 | -23.74852 | 11260 ft | 283 kts | 103° |
| 2026-04-19 07:55 | 64.52021 | -23.70325 | 11025 ft | 282 kts | 103° |
| 2026-04-19 07:55 | 64.51761 | -23.65847 | 10800 ft | 275 kts | 103° |
| 2026-04-19 07:55 | 64.51518 | -23.61538 | 10567 ft | 262 kts | 103° |
| 2026-04-19 07:55 | 64.51298 | -23.57457 | 10326 ft | 247 kts | 103° |
| 2026-04-19 07:56 | 64.51098 | -23.53600 | 10081 ft | 235 kts | 103° |
| 2026-04-19 07:56 | 64.50910 | -23.49910 | 9820 ft | 225 kts | 103° |
| 2026-04-19 07:56 | 64.50735 | -23.46350 | 9569 ft | 220 kts | 103° |
| 2026-04-19 07:56 | 64.50566 | -23.42844 | 9371 ft | 216 kts | 103° |
| 2026-04-19 07:57 | 64.50401 | -23.39432 | 9191 ft | 216 kts | 103° |
| 2026-04-19 07:57 | 64.50231 | -23.35960 | 9021 ft | 218 kts | 103° |
| 2026-04-19 07:57 | 64.50054 | -23.32450 | 8840 ft | 219 kts | 103° |
| 2026-04-19 07:57 | 64.49876 | -23.28918 | 8660 ft | 221 kts | 104° |
| 2026-04-19 07:58 | 64.49696 | -23.25365 | 8462 ft | 222 kts | 103° |
| 2026-04-19 07:58 | 64.49510 | -23.21809 | 8272 ft | 222 kts | 103° |
| 2026-04-19 07:58 | 64.49322 | -23.18271 | 8083 ft | 221 kts | 104° |
| 2026-04-19 07:58 | 64.49135 | -23.14741 | 7893 ft | 220 kts | 104° |
| 2026-04-19 07:59 | 64.48951 | -23.11221 | 7704 ft | 218 kts | 104° |
| 2026-04-19 07:59 | 64.48764 | -23.07747 | 7516 ft | 216 kts | 105° |
| 2026-04-19 07:59 | 64.48501 | -23.04367 | 7332 ft | 215 kts | 107° |
| 2026-04-19 07:59 | 64.48208 | -23.00977 | 7140 ft | 214 kts | 107° |
| 2026-04-19 08:00 | 64.47898 | -22.97582 | 6967 ft | 215 kts | 107° |
| 2026-04-19 08:00 | 64.47575 | -22.94191 | 6791 ft | 216 kts | 108° |
| 2026-04-19 08:00 | 64.47246 | -22.90793 | 6608 ft | 216 kts | 108° |
| 2026-04-19 08:00 | 64.46913 | -22.87388 | 6365 ft | 218 kts | 108° |
| 2026-04-19 08:01 | 64.46589 | -22.83961 | 6145 ft | 216 kts | 108° |
| 2026-04-19 08:01 | 64.46282 | -22.80594 | 6016 ft | 210 kts | 108° |
| 2026-04-19 08:01 | 64.46006 | -22.77436 | 5894 ft | 191 kts | 108° |
| 2026-04-19 08:01 | 64.45767 | -22.74513 | 5645 ft | 182 kts | 108° |
| 2026-04-19 08:02 | 64.45538 | -22.71635 | 5302 ft | 180 kts | 108° |
| 2026-04-19 08:02 | 64.45318 | -22.68814 | 4978 ft | 177 kts | 108° |
| 2026-04-19 08:02 | 64.45109 | -22.66018 | 4647 ft | 175 kts | 108° |
| 2026-04-19 08:02 | 64.44903 | -22.63256 | 4333 ft | 173 kts | 108° |
| 2026-04-19 08:03 | 64.44695 | -22.60522 | 4014 ft | 172 kts | 108° |
| 2026-04-19 08:03 | 64.44488 | -22.57807 | 3702 ft | 171 kts | 108° |
| 2026-04-19 08:03 | 64.44287 | -22.55167 | 3582 ft | 159 kts | 108° |
| 2026-04-19 08:03 | 64.44106 | -22.52693 | 3581 ft | 153 kts | 108° |
| 2026-04-19 08:04 | 64.43931 | -22.50243 | 3514 ft | 159 kts | 108° |
| 2026-04-19 08:04 | 64.43744 | -22.47682 | 3315 ft | 160 kts | 108° |
| 2026-04-19 08:04 | 64.43567 | -22.45226 | 3091 ft | 154 kts | 108° |
| 2026-04-19 08:04 | 64.43385 | -22.42837 | 2862 ft | 148 kts | 108° |
| 2026-04-19 08:05 | 64.43213 | -22.40573 | 2781 ft | 135 kts | 108° |
| 2026-04-19 08:05 | 64.43064 | -22.38489 | 2782 ft | 128 kts | 108° |
| 2026-04-19 08:05 | 64.42924 | -22.36447 | 2785 ft | 129 kts | 108° |
| 2026-04-19 08:05 | 64.42775 | -22.34373 | 2787 ft | 133 kts | 108° |
| 2026-04-19 08:06 | 64.42617 | -22.32238 | 2791 ft | 133 kts | 108° |
| 2026-04-19 08:06 | 64.42465 | -22.30147 | 2790 ft | 131 kts | 108° |
| 2026-04-19 08:06 | 64.42309 | -22.28091 | 2784 ft | 127 kts | 113° |
| 2026-04-19 08:06 | 64.41975 | -22.26263 | 2787 ft | 122 kts | 122° |
| 2026-04-19 08:07 | 64.41622 | -22.24470 | 2797 ft | 123 kts | 121° |
| 2026-04-19 08:07 | 64.41266 | -22.22666 | 2798 ft | 123 kts | 121° |
| 2026-04-19 08:07 | 64.40904 | -22.20862 | 2799 ft | 124 kts | 121° |
| 2026-04-19 08:07 | 64.40541 | -22.19056 | 2801 ft | 124 kts | 121° |
| 2026-04-19 08:08 | 64.40178 | -22.17248 | 2803 ft | 124 kts | 121° |
| 2026-04-19 08:08 | 64.39816 | -22.15432 | 2804 ft | 124 kts | 121° |
| 2026-04-19 08:08 | 64.39455 | -22.13613 | 2804 ft | 124 kts | 121° |
| 2026-04-19 08:08 | 64.39096 | -22.11791 | 2804 ft | 124 kts | 121° |
| 2026-04-19 08:09 | 64.38742 | -22.09987 | 2806 ft | 124 kts | 121° |
| 2026-04-19 08:09 | 64.38386 | -22.08161 | 2807 ft | 125 kts | 121° |
| 2026-04-19 08:09 | 64.38031 | -22.06338 | 2807 ft | 124 kts | 121° |
| 2026-04-19 08:09 | 64.37693 | -22.04580 | 2800 ft | 112 kts | 121° |
| 2026-04-19 08:10 | 64.37389 | -22.02988 | 2777 ft | 107 kts | 121° |
| 2026-04-19 08:10 | 64.37051 | -22.01386 | 2801 ft | 115 kts | 121° |
| 2026-04-19 08:10 | 64.36490 | -22.00122 | 2704 ft | 120 kts | 159° |
| 2026-04-19 08:10 | 64.35749 | -21.99378 | 2813 ft | 117 kts | 154° |
| 2026-04-19 08:11 | 64.34992 | -21.98574 | 2810 ft | 122 kts | 155° |
| 2026-04-19 08:11 | 64.34176 | -21.97984 | 2794 ft | 126 kts | 170° |
| 2026-04-19 08:11 | 64.33310 | -21.97734 | 2806 ft | 126 kts | 170° |
| 2026-04-19 08:11 | 64.32445 | -21.97525 | 2834 ft | 123 kts | 171° |
| 2026-04-19 08:12 | 64.31580 | -21.97357 | 2833 ft | 126 kts | 171° |
| 2026-04-19 08:12 | 64.30672 | -21.97180 | 2827 ft | 133 kts | 171° |
| 2026-04-19 08:12 | 64.29753 | -21.97005 | 2807 ft | 131 kts | 171° |
| 2026-04-19 08:12 | 64.28854 | -21.96835 | 2800 ft | 128 kts | 171° |
| 2026-04-19 08:13 | 64.27978 | -21.96658 | 2799 ft | 125 kts | 169° |
| 2026-04-19 08:13 | 64.27124 | -21.96494 | 2796 ft | 124 kts | 169° |
| 2026-04-19 08:13 | 64.26266 | -21.96330 | 2792 ft | 123 kts | 169° |
| 2026-04-19 08:13 | 64.25424 | -21.96169 | 2792 ft | 120 kts | 168° |
| 2026-04-19 08:14 | 64.24586 | -21.95999 | 2713 ft | 125 kts | 169° |
| 2026-04-19 08:14 | 64.22959 | -21.95689 | 2312 ft | 108 kts | 167° |
| 2026-04-19 08:14 | 64.22223 | -21.95548 | 2143 ft | 104 kts | 167° |
| 2026-04-19 08:15 | 64.21508 | -21.95413 | 1980 ft | 101 kts | 166° |
| 2026-04-19 08:15 | 64.20811 | -21.95273 | 1820 ft | 100 kts | 166° |
| 2026-04-19 08:15 | 64.20124 | -21.95141 | 1659 ft | 101 kts | 166° |
| 2026-04-19 08:15 | 64.19415 | -21.95004 | 1492 ft | 104 kts | 166° |
| 2026-04-19 08:16 | 64.18689 | -21.94864 | 1326 ft | 106 kts | 166° |
| 2026-04-19 08:16 | 64.17951 | -21.94726 | 1146 ft | 107 kts | 167° |
| 2026-04-19 08:16 | 64.17198 | -21.94592 | 968 ft | 111 kts | 167° |
| 2026-04-19 08:16 | 64.16407 | -21.94466 | 779 ft | 116 kts | 167° |
| 2026-04-19 08:17 | 64.15595 | -21.94297 | 572 ft | 120 kts | 165° |
| 2026-04-19 08:17 | 64.14746 | -21.94139 | 374 ft | 125 kts | 167° |
| 2026-04-19 08:17 | 64.13871 | -21.93951 | 139 ft | 125 kts | 168° |
| 2026-04-19 08:17 | 64.13044 | -21.93783 | 40 ft | 111 kts | 167° |
| 2026-04-19 08:18 | 64.12514 | -21.93668 | 38 ft | 51 kts | 175° |
| 2026-04-19 08:18 | 64.12301 | -21.93643 | 41 ft | 19 kts | 174° |
| 2026-04-19 08:18 | 64.12174 | -21.93599 | 42 ft | 18 kts | 170° |
| 2026-04-19 08:18 | 64.12148 | -21.93471 | 42 ft | 6 kts | 40° |
| 2026-04-19 08:19 | 64.12187 | -21.93430 | 41 ft | 7 kts | 17° |
| 2026-04-19 08:19 | 64.12232 | -21.93398 | 41 ft | 8 kts | 14° |
| 2026-04-19 08:19 | 64.12293 | -21.93390 | 40 ft | 10 kts | 354° |
| 2026-04-19 08:19 | 64.12368 | -21.93409 | 39 ft | 12 kts | 354° |
| 2026-04-19 08:20 | 64.12459 | -21.93429 | 38 ft | 14 kts | 354° |
| 2026-04-19 08:20 | 64.12561 | -21.93450 | 36 ft | 15 kts | 355° |
| 2026-04-19 08:20 | 64.12676 | -21.93472 | 32 ft | 18 kts | 356° |
| 2026-04-19 08:20 | 64.12804 | -21.93488 | 32 ft | 18 kts | 355° |
| 2026-04-19 08:21 | 64.12930 | -21.93534 | 33 ft | 17 kts | 351° |
| 2026-04-19 08:21 | 64.13028 | -21.93533 | 37 ft | 12 kts | 24° |
| 2026-04-19 08:21 | 64.13080 | -21.93427 | 37 ft | 1 kts | 8° |
| 2026-04-19 08:21 | 64.13080 | -21.93429 | 37 ft | 0 kts | 351° |